createdAt,value
2018-09-09T00:00:11.048Z,0.00
2018-09-09T00:01:10.972Z,0.00
2018-09-09T00:02:10.899Z,0.00
2018-09-09T00:03:10.826Z,0.00
2018-09-09T00:04:10.756Z,0.00
2018-09-09T00:05:10.679Z,0.00
2018-09-09T00:06:10.607Z,0.00
2018-09-09T00:07:10.535Z,0.00
2018-09-09T00:08:10.460Z,0.00
2018-09-09T00:09:10.381Z,0.00
2018-09-09T00:10:10.312Z,0.00
2018-09-09T00:11:10.237Z,0.00
2018-09-09T00:12:10.165Z,0.00
2018-09-09T00:13:10.093Z,0.00
2018-09-09T00:14:10.020Z,0.00
2018-09-09T00:15:09.948Z,0.00
2018-09-09T00:16:09.870Z,0.00
2018-09-09T00:17:09.795Z,0.00
2018-09-09T00:18:09.724Z,0.00
2018-09-09T00:19:09.650Z,0.00
2018-09-09T00:20:09.576Z,0.00
2018-09-09T00:21:09.501Z,0.00
2018-09-09T00:22:09.430Z,0.00
2018-09-09T00:23:09.356Z,0.00
2018-09-09T00:24:09.285Z,0.00
2018-09-09T00:25:09.212Z,0.00
2018-09-09T00:26:09.135Z,0.00
2018-09-09T00:27:09.063Z,0.00
2018-09-09T00:28:08.989Z,0.00
2018-09-09T00:29:08.914Z,0.00
2018-09-09T00:30:08.847Z,0.00
2018-09-09T00:31:08.769Z,0.00
2018-09-09T00:32:08.691Z,0.00
2018-09-09T00:33:08.621Z,0.00
2018-09-09T00:34:08.552Z,0.00
2018-09-09T00:35:08.472Z,0.00
2018-09-09T00:36:08.402Z,0.00
2018-09-09T00:37:08.326Z,0.00
2018-09-09T00:38:08.252Z,0.00
2018-09-09T00:39:08.179Z,0.00
2018-09-09T00:40:08.105Z,0.00
2018-09-09T00:41:08.031Z,0.00
2018-09-09T00:42:07.957Z,0.00
2018-09-09T00:43:07.887Z,0.00
2018-09-09T00:44:07.806Z,0.00
2018-09-09T00:45:07.737Z,0.00
2018-09-09T00:46:07.664Z,0.00
2018-09-09T00:47:07.589Z,0.00
2018-09-09T00:48:07.515Z,0.00
2018-09-09T00:49:07.440Z,0.00
2018-09-09T00:50:07.367Z,0.00
2018-09-09T00:51:07.292Z,0.00
2018-09-09T00:52:07.227Z,0.00
2018-09-09T00:53:07.147Z,0.00
2018-09-09T00:54:07.072Z,0.00
2018-09-09T00:55:06.997Z,0.00
2018-09-09T00:56:06.924Z,0.00
2018-09-09T00:57:06.851Z,0.00
2018-09-09T00:58:06.776Z,0.00
2018-09-09T00:59:06.701Z,0.00
2018-09-09T01:00:06.634Z,0.00
2018-09-09T01:01:06.556Z,0.00
2018-09-09T01:02:06.484Z,0.00
2018-09-09T01:03:06.408Z,0.00
2018-09-09T01:04:06.332Z,0.00
2018-09-09T01:05:06.261Z,0.00
2018-09-09T01:06:06.191Z,0.00
2018-09-09T01:07:06.111Z,0.00
2018-09-09T01:08:06.037Z,0.00
2018-09-09T01:09:05.968Z,0.00
2018-09-09T01:10:05.893Z,0.00
2018-09-09T01:11:05.817Z,0.00
2018-09-09T01:12:05.745Z,0.00
2018-09-09T01:13:05.668Z,0.00
2018-09-09T01:14:05.594Z,0.00
2018-09-09T01:15:05.519Z,0.00
2018-09-09T01:16:05.445Z,0.00
2018-09-09T01:17:05.373Z,0.00
2018-09-09T01:18:05.299Z,0.00
2018-09-09T01:19:05.225Z,0.00
2018-09-09T01:20:05.147Z,0.00
2018-09-09T01:21:05.080Z,0.00
2018-09-09T01:22:05.003Z,0.00
2018-09-09T01:23:04.925Z,0.00
2018-09-09T01:24:04.856Z,0.00
2018-09-09T01:25:04.784Z,0.00
2018-09-09T01:26:04.707Z,0.00
2018-09-09T01:27:04.630Z,0.00
2018-09-09T01:28:04.561Z,0.00
2018-09-09T01:29:04.519Z,0.00
2018-09-09T01:30:04.497Z,0.00
2018-09-09T01:31:04.341Z,0.00
2018-09-09T01:32:04.262Z,0.00
2018-09-09T01:33:04.189Z,0.00
2018-09-09T01:34:04.116Z,0.00
2018-09-09T01:35:04.046Z,0.00
2018-09-09T01:36:03.975Z,0.00
2018-09-09T01:37:03.906Z,0.00
2018-09-09T01:38:03.822Z,0.00
2018-09-09T01:39:03.747Z,0.00
2018-09-09T01:40:03.673Z,0.00
2018-09-09T01:41:03.599Z,0.00
2018-09-09T01:42:03.525Z,0.00
2018-09-09T01:43:03.454Z,0.00
2018-09-09T01:44:03.381Z,0.00
2018-09-09T01:45:03.303Z,0.00
2018-09-09T01:46:03.228Z,0.00
2018-09-09T01:47:03.156Z,0.00
2018-09-09T01:48:03.080Z,0.00
2018-09-09T01:49:03.005Z,0.00
2018-09-09T01:50:02.932Z,0.00
2018-09-09T01:51:02.856Z,0.00
2018-09-09T01:52:02.784Z,0.00
2018-09-09T01:53:02.711Z,0.00
2018-09-09T01:54:02.638Z,0.00
2018-09-09T01:55:02.563Z,0.00
2018-09-09T01:56:02.490Z,0.00
2018-09-09T01:57:02.418Z,0.00
2018-09-09T01:58:02.339Z,0.00
2018-09-09T01:59:02.261Z,0.00
2018-09-09T02:00:02.194Z,0.00
2018-09-09T02:01:02.118Z,0.00
2018-09-09T02:02:02.044Z,0.00
2018-09-09T02:03:01.969Z,0.00
2018-09-09T02:04:01.900Z,0.00
2018-09-09T02:05:01.820Z,0.00
2018-09-09T02:06:01.742Z,0.00
2018-09-09T02:07:01.672Z,0.00
2018-09-09T02:08:01.600Z,0.00
2018-09-09T02:09:01.526Z,0.00
2018-09-09T02:10:01.455Z,0.00
2018-09-09T02:11:01.376Z,0.00
2018-09-09T02:12:01.306Z,0.00
2018-09-09T02:13:01.230Z,0.00
2018-09-09T02:14:01.162Z,0.00
2018-09-09T02:15:01.079Z,0.00
2018-09-09T02:16:01.009Z,0.00
2018-09-09T02:17:00.934Z,0.00
2018-09-09T02:18:00.860Z,0.00
2018-09-09T02:19:00.782Z,0.00
2018-09-09T02:20:00.711Z,0.00
2018-09-09T02:21:00.638Z,0.00
2018-09-09T02:22:00.567Z,0.00
2018-09-09T02:23:00.492Z,0.00
2018-09-09T02:24:00.415Z,0.00
2018-09-09T02:25:00.341Z,0.00
2018-09-09T02:26:00.273Z,0.00
2018-09-09T02:27:00.196Z,0.00
2018-09-09T02:28:00.119Z,0.00
2018-09-09T02:29:00.045Z,0.00
2018-09-09T02:29:59.974Z,0.00
2018-09-09T02:30:59.897Z,0.00
2018-09-09T02:31:59.819Z,0.00
2018-09-09T02:32:59.748Z,0.00
2018-09-09T02:33:59.680Z,0.00
2018-09-09T02:34:59.605Z,0.00
2018-09-09T02:35:59.530Z,0.00
2018-09-09T02:36:59.460Z,0.00
2018-09-09T02:37:59.384Z,0.00
2018-09-09T02:38:59.308Z,0.00
2018-09-09T02:39:59.255Z,0.00
2018-09-09T02:40:59.160Z,0.00
2018-09-09T02:41:59.085Z,0.00
2018-09-09T02:42:59.008Z,0.00
2018-09-09T02:43:58.935Z,0.00
2018-09-09T02:44:58.860Z,0.00
2018-09-09T02:45:58.787Z,0.00
2018-09-09T02:46:58.713Z,0.00
2018-09-09T02:47:58.638Z,0.00
2018-09-09T02:48:58.564Z,0.00
2018-09-09T02:49:58.491Z,0.00
2018-09-09T02:50:58.414Z,0.00
2018-09-09T02:51:58.341Z,0.00
2018-09-09T02:52:58.279Z,0.00
2018-09-09T02:53:58.194Z,0.00
2018-09-09T02:54:58.119Z,0.00
2018-09-09T02:55:58.056Z,0.00
2018-09-09T02:56:57.969Z,0.00
2018-09-09T02:57:57.896Z,0.00
2018-09-09T02:58:57.822Z,0.00
2018-09-09T02:59:57.747Z,0.00
2018-09-09T03:00:57.684Z,0.00
2018-09-09T03:01:57.599Z,0.00
2018-09-09T03:02:57.529Z,0.00
2018-09-09T03:03:57.452Z,0.00
2018-09-09T03:04:57.377Z,0.00
2018-09-09T03:05:57.301Z,0.00
2018-09-09T03:06:57.229Z,0.00
2018-09-09T03:07:57.154Z,0.00
2018-09-09T03:08:57.078Z,0.00
2018-09-09T03:09:57.006Z,0.00
2018-09-09T03:10:56.947Z,0.00
2018-09-09T03:11:56.857Z,0.00
2018-09-09T03:12:56.785Z,0.00
2018-09-09T03:13:56.708Z,0.00
2018-09-09T03:14:56.635Z,0.00
2018-09-09T03:15:56.558Z,0.00
2018-09-09T03:16:56.487Z,0.00
2018-09-09T03:17:56.413Z,0.00
2018-09-09T03:18:56.336Z,0.00
2018-09-09T03:19:56.263Z,0.00
2018-09-09T03:20:56.189Z,0.00
2018-09-09T03:21:56.115Z,0.00
2018-09-09T03:22:56.040Z,0.00
2018-09-09T03:23:55.964Z,0.00
2018-09-09T03:24:55.894Z,0.00
2018-09-09T03:25:55.821Z,0.00
2018-09-09T03:26:55.743Z,0.00
2018-09-09T03:27:55.672Z,0.00
2018-09-09T03:28:55.649Z,0.00
2018-09-09T03:29:55.517Z,0.00
2018-09-09T03:30:55.447Z,0.00
2018-09-09T03:31:55.373Z,0.00
2018-09-09T03:32:55.298Z,0.00
2018-09-09T03:33:55.224Z,0.00
2018-09-09T03:34:55.151Z,0.00
2018-09-09T03:35:55.075Z,0.00
2018-09-09T03:36:55.000Z,0.00
2018-09-09T03:37:54.929Z,0.00
2018-09-09T03:38:54.861Z,0.00
2018-09-09T03:39:54.777Z,0.00
2018-09-09T03:40:54.709Z,0.00
2018-09-09T03:41:54.634Z,0.00
2018-09-09T03:42:54.555Z,0.00
2018-09-09T03:43:54.485Z,0.00
2018-09-09T03:44:54.406Z,0.00
2018-09-09T03:45:54.332Z,0.00
2018-09-09T03:46:54.261Z,0.00
2018-09-09T03:47:54.182Z,0.00
2018-09-09T03:48:54.109Z,0.00
2018-09-09T03:49:54.035Z,0.00
2018-09-09T03:50:53.960Z,0.00
2018-09-09T03:51:53.887Z,0.00
2018-09-09T03:52:53.816Z,0.00
2018-09-09T03:53:53.744Z,0.00
2018-09-09T03:54:53.664Z,0.00
2018-09-09T03:55:53.590Z,0.00
2018-09-09T03:56:53.521Z,0.00
2018-09-09T03:57:53.444Z,0.00
2018-09-09T03:58:53.367Z,0.00
2018-09-09T03:59:53.298Z,0.00
2018-09-09T04:00:53.218Z,0.00
2018-09-09T04:01:53.144Z,0.00
2018-09-09T04:02:53.068Z,0.00
2018-09-09T04:03:52.994Z,0.00
2018-09-09T04:04:52.926Z,0.00
2018-09-09T04:05:52.846Z,0.00
2018-09-09T04:06:52.772Z,0.00
2018-09-09T04:07:52.698Z,0.00
2018-09-09T04:08:52.625Z,0.00
2018-09-09T04:09:52.556Z,0.00
2018-09-09T04:10:52.474Z,0.00
2018-09-09T04:11:52.403Z,0.00
2018-09-09T04:12:52.325Z,0.00
2018-09-09T04:13:52.251Z,0.00
2018-09-09T04:14:52.177Z,0.00
2018-09-09T04:15:52.109Z,0.00
2018-09-09T04:16:52.032Z,0.00
2018-09-09T04:17:51.955Z,0.00
2018-09-09T04:18:51.881Z,0.00
2018-09-09T04:19:51.805Z,0.00
2018-09-09T04:20:51.738Z,0.00
2018-09-09T04:21:51.657Z,0.00
2018-09-09T04:22:51.585Z,0.00
2018-09-09T04:23:51.508Z,0.00
2018-09-09T04:24:51.433Z,0.00
2018-09-09T04:25:51.360Z,0.00
2018-09-09T04:26:51.284Z,0.00
2018-09-09T04:27:51.210Z,0.00
2018-09-09T04:28:51.141Z,0.00
2018-09-09T04:29:51.065Z,0.00
2018-09-09T04:30:51.061Z,0.00
2018-09-09T04:31:50.911Z,0.00
2018-09-09T04:32:50.839Z,0.00
2018-09-09T04:33:50.765Z,0.00
2018-09-09T04:34:50.690Z,0.00
2018-09-09T04:35:50.615Z,0.00
2018-09-09T04:36:50.544Z,0.00
2018-09-09T04:37:50.471Z,0.00
2018-09-09T04:38:50.391Z,0.00
2018-09-09T04:39:50.322Z,0.00
2018-09-09T04:40:50.245Z,0.00
2018-09-09T04:41:50.181Z,0.00
2018-09-09T04:42:50.094Z,0.00
2018-09-09T04:43:50.025Z,0.00
2018-09-09T04:44:49.949Z,0.00
2018-09-09T04:45:49.870Z,0.00
2018-09-09T04:46:49.798Z,0.00
2018-09-09T04:47:49.722Z,0.00
2018-09-09T04:48:49.664Z,0.00
2018-09-09T04:49:49.574Z,0.00
2018-09-09T04:50:49.501Z,0.00
2018-09-09T04:51:49.426Z,0.00
2018-09-09T04:52:49.355Z,0.00
2018-09-09T04:53:49.277Z,0.00
2018-09-09T04:54:49.202Z,0.00
2018-09-09T04:55:49.126Z,0.00
2018-09-09T04:56:49.054Z,0.00
2018-09-09T04:57:48.980Z,0.00
2018-09-09T04:58:48.905Z,5.63
2018-09-09T04:59:48.833Z,5.63
2018-09-09T05:00:48.757Z,5.63
2018-09-09T05:01:48.682Z,5.63
2018-09-09T05:02:48.607Z,5.63
2018-09-09T05:03:48.532Z,5.63
2018-09-09T05:04:48.457Z,5.63
2018-09-09T05:05:48.385Z,5.63
2018-09-09T05:06:48.312Z,5.63
2018-09-09T05:07:48.235Z,5.63
2018-09-09T05:08:48.163Z,5.63
2018-09-09T05:09:48.088Z,11.25
2018-09-09T05:10:48.018Z,11.25
2018-09-09T05:11:47.943Z,11.25
2018-09-09T05:12:47.864Z,11.25
2018-09-09T05:13:47.825Z,11.25
2018-09-09T05:14:47.712Z,11.25
2018-09-09T05:15:47.640Z,11.25
2018-09-09T05:16:47.566Z,16.88
2018-09-09T05:17:47.496Z,16.88
2018-09-09T05:18:47.422Z,16.88
2018-09-09T05:19:47.345Z,16.88
2018-09-09T05:20:47.270Z,16.88
2018-09-09T05:21:47.194Z,16.88
2018-09-09T05:22:47.120Z,16.88
2018-09-09T05:23:47.050Z,22.50
2018-09-09T05:24:46.971Z,22.50
2018-09-09T05:25:46.897Z,22.50
2018-09-09T05:26:46.822Z,22.50
2018-09-09T05:27:46.749Z,22.50
2018-09-09T05:28:46.672Z,22.50
2018-09-09T05:29:46.601Z,28.13
2018-09-09T05:30:46.526Z,28.13
2018-09-09T05:31:46.450Z,28.13
2018-09-09T05:32:46.375Z,28.13
2018-09-09T05:33:46.302Z,33.75
2018-09-09T05:34:46.227Z,33.75
2018-09-09T05:35:46.159Z,39.38
2018-09-09T05:36:46.081Z,39.38
2018-09-09T05:37:46.016Z,45.00
2018-09-09T05:38:45.926Z,45.00
2018-09-09T05:39:45.856Z,50.63
2018-09-09T05:40:45.780Z,50.63
2018-09-09T05:41:45.709Z,50.63
2018-09-09T05:42:45.635Z,56.25
2018-09-09T05:43:45.565Z,56.25
2018-09-09T05:44:45.558Z,56.25
2018-09-09T05:45:45.409Z,56.25
2018-09-09T05:46:45.333Z,61.88
2018-09-09T05:47:45.257Z,61.88
2018-09-09T05:48:45.186Z,61.88
2018-09-09T05:49:45.118Z,67.50
2018-09-09T05:50:45.038Z,67.50
2018-09-09T05:51:44.964Z,73.13
2018-09-09T05:52:44.888Z,73.13
2018-09-09T05:53:44.863Z,73.13
2018-09-09T05:54:44.743Z,78.75
2018-09-09T05:55:44.665Z,78.75
2018-09-09T05:56:44.592Z,78.75
2018-09-09T05:57:44.548Z,78.75
2018-09-09T05:58:44.449Z,78.75
2018-09-09T05:59:44.368Z,73.13
2018-09-09T06:00:44.296Z,73.13
2018-09-09T06:01:44.226Z,73.13
2018-09-09T06:02:44.147Z,73.13
2018-09-09T06:03:44.073Z,73.13
2018-09-09T06:04:43.999Z,73.13
2018-09-09T06:05:43.927Z,67.50
2018-09-09T06:06:43.855Z,67.50
2018-09-09T06:07:43.775Z,61.88
2018-09-09T06:08:43.705Z,61.88
2018-09-09T06:09:43.630Z,61.88
2018-09-09T06:10:43.556Z,61.88
2018-09-09T06:11:43.481Z,61.88
2018-09-09T06:12:43.408Z,67.50
2018-09-09T06:13:43.336Z,67.50
2018-09-09T06:14:43.260Z,67.50
2018-09-09T06:15:43.187Z,67.50
2018-09-09T06:16:43.113Z,67.50
2018-09-09T06:17:43.039Z,67.50
2018-09-09T06:18:42.965Z,67.50
2018-09-09T06:19:42.891Z,73.13
2018-09-09T06:20:42.818Z,73.13
2018-09-09T06:21:42.743Z,73.13
2018-09-09T06:22:42.671Z,73.13
2018-09-09T06:23:42.595Z,73.13
2018-09-09T06:24:42.521Z,73.13
2018-09-09T06:25:42.447Z,73.13
2018-09-09T06:26:42.376Z,78.75
2018-09-09T06:27:42.302Z,78.75
2018-09-09T06:28:42.227Z,78.75
2018-09-09T06:29:42.155Z,78.75
2018-09-09T06:30:42.075Z,78.75
2018-09-09T06:31:42.004Z,78.75
2018-09-09T06:32:41.932Z,78.75
2018-09-09T06:33:41.877Z,78.75
2018-09-09T06:34:41.786Z,78.75
2018-09-09T06:35:41.707Z,84.38
2018-09-09T06:36:41.637Z,90.00
2018-09-09T06:37:41.562Z,95.63
2018-09-09T06:38:41.487Z,101.25
2018-09-09T06:39:41.414Z,106.88
2018-09-09T06:40:41.344Z,112.50
2018-09-09T06:41:41.268Z,112.50
2018-09-09T06:42:41.192Z,118.13
2018-09-09T06:43:41.118Z,118.13
2018-09-09T06:44:41.046Z,118.13
2018-09-09T06:45:40.973Z,118.13
2018-09-09T06:46:40.900Z,123.75
2018-09-09T06:47:40.825Z,118.13
2018-09-09T06:48:40.752Z,118.13
2018-09-09T06:49:40.678Z,118.13
2018-09-09T06:50:40.602Z,118.13
2018-09-09T06:51:40.532Z,118.13
2018-09-09T06:52:40.459Z,118.13
2018-09-09T06:53:40.383Z,118.13
2018-09-09T06:54:40.310Z,118.13
2018-09-09T06:55:40.241Z,118.13
2018-09-09T06:56:40.163Z,123.75
2018-09-09T06:57:40.091Z,123.75
2018-09-09T06:58:40.017Z,123.75
2018-09-09T06:59:39.944Z,129.38
2018-09-09T07:00:39.869Z,129.38
2018-09-09T07:01:39.802Z,129.38
2018-09-09T07:02:39.725Z,129.38
2018-09-09T07:03:39.651Z,135.00
2018-09-09T07:04:39.577Z,135.00
2018-09-09T07:05:39.502Z,135.00
2018-09-09T07:06:39.429Z,135.00
2018-09-09T07:07:39.360Z,135.00
2018-09-09T07:08:39.289Z,135.00
2018-09-09T07:09:39.214Z,135.00
2018-09-09T07:10:39.139Z,135.00
2018-09-09T07:11:39.200Z,135.00
2018-09-09T07:12:38.995Z,135.00
2018-09-09T07:13:38.918Z,135.00
2018-09-09T07:14:38.849Z,140.63
2018-09-09T07:15:38.772Z,140.63
2018-09-09T07:16:38.700Z,140.63
2018-09-09T07:17:38.629Z,140.63
2018-09-09T07:18:38.557Z,140.63
2018-09-09T07:19:38.486Z,140.63
2018-09-09T07:20:38.407Z,140.63
2018-09-09T07:21:38.333Z,140.63
2018-09-09T07:22:38.299Z,140.63
2018-09-09T07:23:38.191Z,140.63
2018-09-09T07:24:38.113Z,140.63
2018-09-09T07:25:38.048Z,140.63
2018-09-09T07:26:37.974Z,140.63
2018-09-09T07:27:37.897Z,135.00
2018-09-09T07:28:37.846Z,135.00
2018-09-09T07:29:37.752Z,135.00
2018-09-09T07:30:37.677Z,135.00
2018-09-09T07:31:37.608Z,135.00
2018-09-09T07:32:37.534Z,129.38
2018-09-09T07:33:37.463Z,129.38
2018-09-09T07:34:37.388Z,129.38
2018-09-09T07:35:37.314Z,129.38
2018-09-09T07:36:37.244Z,129.38
2018-09-09T07:37:37.171Z,129.38
2018-09-09T07:38:37.098Z,129.38
2018-09-09T07:39:37.024Z,129.38
2018-09-09T07:40:36.952Z,129.38
2018-09-09T07:41:36.880Z,129.38
2018-09-09T07:42:36.810Z,135.00
2018-09-09T07:43:36.734Z,135.00
2018-09-09T07:44:36.655Z,135.00
2018-09-09T07:45:36.590Z,135.00
2018-09-09T07:46:36.518Z,129.38
2018-09-09T07:47:36.445Z,129.38
2018-09-09T07:48:36.374Z,129.38
2018-09-09T07:49:36.304Z,129.38
2018-09-09T07:50:36.279Z,129.38
2018-09-09T07:51:36.159Z,129.38
2018-09-09T07:52:36.081Z,123.75
2018-09-09T07:53:36.012Z,123.75
2018-09-09T07:54:35.937Z,123.75
2018-09-09T07:55:35.866Z,123.75
2018-09-09T07:56:35.793Z,123.75
2018-09-09T07:57:35.725Z,123.75
2018-09-09T07:58:35.646Z,118.13
2018-09-09T07:59:35.575Z,123.75
2018-09-09T08:00:35.502Z,118.13
2018-09-09T08:01:35.431Z,112.50
2018-09-09T08:02:35.358Z,106.88
2018-09-09T08:03:35.288Z,101.25
2018-09-09T08:04:35.214Z,101.25
2018-09-09T08:05:35.154Z,95.63
2018-09-09T08:06:35.070Z,95.63
2018-09-09T08:07:34.998Z,101.25
2018-09-09T08:08:34.924Z,106.88
2018-09-09T08:09:34.852Z,118.13
2018-09-09T08:10:34.780Z,129.38
2018-09-09T08:11:34.707Z,123.75
2018-09-09T08:12:34.636Z,112.50
2018-09-09T08:13:34.560Z,112.50
2018-09-09T08:14:34.490Z,118.13
2018-09-09T08:15:34.418Z,118.13
2018-09-09T08:16:34.346Z,129.38
2018-09-09T08:17:34.275Z,123.75
2018-09-09T08:18:34.263Z,123.75
2018-09-09T08:19:34.131Z,118.13
2018-09-09T08:20:34.062Z,123.75
2018-09-09T08:21:33.988Z,129.38
2018-09-09T08:22:33.919Z,123.75
2018-09-09T08:23:33.905Z,129.38
2018-09-09T08:24:33.771Z,140.63
2018-09-09T08:25:33.701Z,146.25
2018-09-09T08:26:33.629Z,140.63
2018-09-09T08:27:33.559Z,146.25
2018-09-09T08:28:33.487Z,163.13
2018-09-09T08:29:33.419Z,157.50
2018-09-09T08:30:33.343Z,163.13
2018-09-09T08:31:33.270Z,180.00
2018-09-09T08:32:33.200Z,174.38
2018-09-09T08:33:33.129Z,174.38
2018-09-09T08:34:33.059Z,180.00
2018-09-09T08:35:32.987Z,196.88
2018-09-09T08:36:32.916Z,202.50
2018-09-09T08:37:32.845Z,219.38
2018-09-09T08:38:32.771Z,230.63
2018-09-09T08:39:32.708Z,241.88
2018-09-09T08:40:32.632Z,247.50
2018-09-09T08:41:32.564Z,253.13
2018-09-09T08:42:32.485Z,247.50
2018-09-09T08:43:32.419Z,247.50
2018-09-09T08:44:32.348Z,247.50
2018-09-09T08:45:32.335Z,247.50
2018-09-09T08:46:32.209Z,247.50
2018-09-09T08:47:32.135Z,247.50
2018-09-09T08:48:32.063Z,247.50
2018-09-09T08:49:31.991Z,247.50
2018-09-09T08:50:31.923Z,253.13
2018-09-09T08:51:31.853Z,264.38
2018-09-09T08:52:31.782Z,275.63
2018-09-09T08:53:31.711Z,286.88
2018-09-09T08:54:31.640Z,298.13
2018-09-09T08:55:31.571Z,303.75
2018-09-09T08:56:31.502Z,309.38
2018-09-09T08:57:31.482Z,315.00
2018-09-09T08:58:31.360Z,320.63
2018-09-09T08:59:31.290Z,320.63
2018-09-09T09:00:31.226Z,320.63
2018-09-09T09:01:31.236Z,320.63
2018-09-09T09:02:31.080Z,320.63
2018-09-09T09:03:31.010Z,320.63
2018-09-09T09:04:30.943Z,315.00
2018-09-09T09:05:30.873Z,315.00
2018-09-09T09:06:30.800Z,315.00
2018-09-09T09:07:30.781Z,309.38
2018-09-09T09:08:30.659Z,315.00
2018-09-09T09:09:30.590Z,298.13
2018-09-09T09:10:30.519Z,281.25
2018-09-09T09:11:30.451Z,270.00
2018-09-09T09:12:30.383Z,258.75
2018-09-09T09:13:30.314Z,241.88
2018-09-09T09:14:30.243Z,230.63
2018-09-09T09:15:30.176Z,225.00
2018-09-09T09:16:30.103Z,219.38
2018-09-09T09:17:30.038Z,219.38
2018-09-09T09:18:29.977Z,219.38
2018-09-09T09:19:29.895Z,219.38
2018-09-09T09:20:29.829Z,230.63
2018-09-09T09:21:29.760Z,247.50
2018-09-09T09:22:29.687Z,264.38
2018-09-09T09:23:29.620Z,270.00
2018-09-09T09:24:29.548Z,281.25
2018-09-09T09:25:29.484Z,348.75
2018-09-09T09:26:29.411Z,326.25
2018-09-09T09:27:29.345Z,438.75
2018-09-09T09:28:29.271Z,461.25
2018-09-09T09:29:29.202Z,573.75
2018-09-09T09:30:29.132Z,675.00
2018-09-09T09:31:29.063Z,438.75
2018-09-09T09:32:28.995Z,365.63
2018-09-09T09:33:28.925Z,360.00
2018-09-09T09:34:28.859Z,360.00
2018-09-09T09:35:28.788Z,388.13
2018-09-09T09:36:28.722Z,371.25
2018-09-09T09:37:28.658Z,337.50
2018-09-09T09:38:28.588Z,354.38
2018-09-09T09:39:28.559Z,399.38
2018-09-09T09:40:28.460Z,399.38
2018-09-09T09:41:28.383Z,365.63
2018-09-09T09:42:28.316Z,405.00
2018-09-09T09:43:28.246Z,365.63
2018-09-09T09:44:28.177Z,410.63
2018-09-09T09:45:28.113Z,405.00
2018-09-09T09:46:28.046Z,393.75
2018-09-09T09:47:27.978Z,371.25
2018-09-09T09:48:27.908Z,354.38
2018-09-09T09:49:27.843Z,331.88
2018-09-09T09:50:27.773Z,315.00
2018-09-09T09:51:27.711Z,298.13
2018-09-09T09:52:27.643Z,281.25
2018-09-09T09:53:27.583Z,270.00
2018-09-09T09:54:27.506Z,264.38
2018-09-09T09:55:27.460Z,253.13
2018-09-09T09:56:27.385Z,247.50
2018-09-09T09:57:27.306Z,247.50
2018-09-09T09:58:27.244Z,236.25
2018-09-09T09:59:27.163Z,213.75
2018-09-09T10:00:27.152Z,202.50
2018-09-09T10:01:27.034Z,191.25
2018-09-09T10:02:26.963Z,213.75
2018-09-09T10:03:26.944Z,191.25
2018-09-09T10:04:26.831Z,196.88
2018-09-09T10:05:26.765Z,163.13
2018-09-09T10:06:26.692Z,180.00
2018-09-09T10:07:26.626Z,140.63
2018-09-09T10:08:26.563Z,118.13
2018-09-09T10:09:26.507Z,123.75
2018-09-09T10:10:26.423Z,135.00
2018-09-09T10:11:26.358Z,168.75
2018-09-09T10:12:26.287Z,180.00
2018-09-09T10:13:26.220Z,180.00
2018-09-09T10:14:26.151Z,157.50
2018-09-09T10:15:26.087Z,129.38
2018-09-09T10:16:26.015Z,123.75
2018-09-09T10:17:25.947Z,123.75
2018-09-09T10:18:25.880Z,135.00
2018-09-09T10:19:25.811Z,157.50
2018-09-09T10:20:25.741Z,163.13
2018-09-09T10:21:25.678Z,157.50
2018-09-09T10:22:25.614Z,129.38
2018-09-09T10:23:25.536Z,135.00
2018-09-09T10:24:25.473Z,129.38
2018-09-09T10:25:25.399Z,123.75
2018-09-09T10:26:25.335Z,129.38
2018-09-09T10:27:25.263Z,135.00
2018-09-09T10:28:25.194Z,140.63
2018-09-09T10:29:25.128Z,140.63
2018-09-09T10:30:25.058Z,146.25
2018-09-09T10:31:24.988Z,140.63
2018-09-09T10:32:24.921Z,151.88
2018-09-09T10:33:24.854Z,157.50
2018-09-09T10:34:24.780Z,168.75
2018-09-09T10:35:24.714Z,180.00
2018-09-09T10:36:24.643Z,191.25
2018-09-09T10:37:24.576Z,202.50
2018-09-09T10:38:24.510Z,213.75
2018-09-09T10:39:24.441Z,208.13
2018-09-09T10:40:24.369Z,213.75
2018-09-09T10:41:24.300Z,196.88
2018-09-09T10:42:24.231Z,185.63
2018-09-09T10:43:24.165Z,185.63
2018-09-09T10:44:24.093Z,191.25
2018-09-09T10:45:24.024Z,202.50
2018-09-09T10:46:24.116Z,213.75
2018-09-09T10:47:23.886Z,230.63
2018-09-09T10:48:23.818Z,230.63
2018-09-09T10:49:23.754Z,258.75
2018-09-09T10:50:23.680Z,275.63
2018-09-09T10:51:23.610Z,303.75
2018-09-09T10:52:23.543Z,326.25
2018-09-09T10:53:23.473Z,326.25
2018-09-09T10:54:23.405Z,326.25
2018-09-09T10:55:23.334Z,315.00
2018-09-09T10:56:23.268Z,303.75
2018-09-09T10:57:23.200Z,303.75
2018-09-09T10:58:23.131Z,298.13
2018-09-09T10:59:23.073Z,315.00
2018-09-09T11:00:22.995Z,298.13
2018-09-09T11:01:22.929Z,292.50
2018-09-09T11:02:22.862Z,303.75
2018-09-09T11:03:22.794Z,315.00
2018-09-09T11:04:22.720Z,320.63
2018-09-09T11:05:22.650Z,320.63
2018-09-09T11:06:22.584Z,337.50
2018-09-09T11:07:22.515Z,360.00
2018-09-09T11:08:22.446Z,371.25
2018-09-09T11:09:22.378Z,405.00
2018-09-09T11:10:22.310Z,405.00
2018-09-09T11:11:22.243Z,421.88
2018-09-09T11:12:22.175Z,365.63
2018-09-09T11:13:22.110Z,343.13
2018-09-09T11:14:22.038Z,286.88
2018-09-09T11:15:21.972Z,241.88
2018-09-09T11:16:21.902Z,196.88
2018-09-09T11:17:21.835Z,180.00
2018-09-09T11:18:21.768Z,174.38
2018-09-09T11:19:21.700Z,174.38
2018-09-09T11:20:21.632Z,168.75
2018-09-09T11:21:21.565Z,174.38
2018-09-09T11:22:21.499Z,191.25
2018-09-09T11:23:21.431Z,230.63
2018-09-09T11:24:21.390Z,354.38
2018-09-09T11:25:21.292Z,528.75
2018-09-09T11:26:21.228Z,495.00
2018-09-09T11:27:21.157Z,618.75
2018-09-09T11:28:21.089Z,725.63
2018-09-09T11:29:21.023Z,928.13
2018-09-09T11:30:20.955Z,832.50
2018-09-09T11:31:20.888Z,652.50
2018-09-09T11:32:20.821Z,528.75
2018-09-09T11:33:20.757Z,382.50
2018-09-09T11:34:20.689Z,393.75
2018-09-09T11:35:20.622Z,416.25
2018-09-09T11:36:20.558Z,438.75
2018-09-09T11:37:20.487Z,455.63
2018-09-09T11:38:20.422Z,444.38
2018-09-09T11:39:20.355Z,399.38
2018-09-09T11:40:20.288Z,360.00
2018-09-09T11:41:20.222Z,337.50
2018-09-09T11:42:20.153Z,320.63
2018-09-09T11:43:20.090Z,315.00
2018-09-09T11:44:20.022Z,337.50
2018-09-09T11:45:19.959Z,303.75
2018-09-09T11:46:19.888Z,275.63
2018-09-09T11:47:19.823Z,213.75
2018-09-09T11:48:19.756Z,213.75
2018-09-09T11:49:19.688Z,202.50
2018-09-09T11:50:19.625Z,191.25
2018-09-09T11:51:19.557Z,191.25
2018-09-09T11:52:19.493Z,196.88
2018-09-09T11:53:19.523Z,191.25
2018-09-09T11:54:19.353Z,196.88
2018-09-09T11:55:19.286Z,208.13
2018-09-09T11:56:19.220Z,208.13
2018-09-09T11:57:19.153Z,196.88
2018-09-09T11:58:19.088Z,185.63
2018-09-09T11:59:19.021Z,185.63
2018-09-09T12:00:18.952Z,202.50
2018-09-09T12:01:18.883Z,202.50
2018-09-09T12:02:18.818Z,202.50
2018-09-09T12:03:18.753Z,202.50
2018-09-09T12:04:18.682Z,208.13
2018-09-09T12:05:18.613Z,208.13
2018-09-09T12:06:18.545Z,208.13
2018-09-09T12:07:18.476Z,202.50
2018-09-09T12:08:18.412Z,185.63
2018-09-09T12:09:18.343Z,174.38
2018-09-09T12:10:18.274Z,174.38
2018-09-09T12:11:18.211Z,168.75
2018-09-09T12:12:18.153Z,185.63
2018-09-09T12:13:18.071Z,219.38
2018-09-09T12:14:18.006Z,703.13
2018-09-09T12:15:17.936Z,523.13
2018-09-09T12:16:17.869Z,961.88
2018-09-09T12:17:17.797Z,1873.13
2018-09-09T12:18:17.735Z,1125.00
2018-09-09T12:19:17.664Z,343.13
2018-09-09T12:20:17.596Z,343.13
2018-09-09T12:21:17.527Z,410.63
2018-09-09T12:22:17.461Z,230.63
2018-09-09T12:23:17.394Z,174.38
2018-09-09T12:24:17.329Z,281.25
2018-09-09T12:25:17.263Z,286.88
2018-09-09T12:26:17.192Z,303.75
2018-09-09T12:27:17.126Z,258.75
2018-09-09T12:28:17.057Z,213.75
2018-09-09T12:29:16.990Z,151.88
2018-09-09T12:30:16.921Z,151.88
2018-09-09T12:31:16.856Z,151.88
2018-09-09T12:32:16.809Z,157.50
2018-09-09T12:33:16.724Z,157.50
2018-09-09T12:34:16.654Z,157.50
2018-09-09T12:35:16.583Z,180.00
2018-09-09T12:36:16.515Z,163.13
2018-09-09T12:37:16.453Z,163.13
2018-09-09T12:38:16.381Z,146.25
2018-09-09T12:39:16.310Z,146.25
2018-09-09T12:40:16.247Z,146.25
2018-09-09T12:41:16.181Z,146.25
2018-09-09T12:42:16.109Z,146.25
2018-09-09T12:43:16.046Z,146.25
2018-09-09T12:44:15.979Z,151.88
2018-09-09T12:45:15.912Z,140.63
2018-09-09T12:46:15.840Z,146.25
2018-09-09T12:47:15.834Z,151.88
2018-09-09T12:48:15.708Z,157.50
2018-09-09T12:49:15.646Z,157.50